Portada
METAR-TAF:

METAR-TAF

Aeroports :

Apia, Upolu, Samoa

latitud: 13-49S, longitud: 172-00W, altitud: 5 m

Observació

L'informe es va fer fa 1 hora i 13 minuts, a les 20:00 UTC
Vent 3 kt del Nord
Temperatura 30°C
Humitat 75%
Pressió 1013 hPa
Visibilitat 10 km o més
Escasses núvols a una alçada de 2500 ft

METAR: NSFA 282000Z 01003KT 9999 FEW025 30/25 Q1013

Hora: 10:13 (21:13 UTC)

Pronòstic

L'informe es va fer fa 4 hores i 10 minuts, a les 17:03 UTC
Pronòstic vàlid del 28 a les 18 UTC al 29 a les 18 UTC
Vent 7 kt del Sud/Sud-Est
Visibilitat 10 km o més
Escasses núvols a una alçada de 2900 ft
Probabilitat 30% :
Temporalment
l' 28 a les 21 UTC al 29 a les 06 UTC
Visibilitat: 5000 m
Escasses núvols a una alçada de 1800 ft, Cumulonimbus.
tempesta, pluja,

TAF: NSFA 281703Z 2818/2918 16007KT 9999 FEW029 PROB30 TEMPO 2821/2906 5000 TSRA FEW018CB

Observacions i pronòstics meteorològics de més de 4000 aeroports (METAR i TAF).

Les estacions disponibles són els punts grocs i vermells al mapa.

Posi el ratolí al punt desitjat per veure el nom de l'estació.

Feu clic per veure les observacions i els pronòstics meteorològics.

Per canviar el mapa: feu clic els botons verds amb una creu de color negre per apropar; al botó verd amb un guió per allunyar la imatge; o en les fletxes verdes per a mapes adjacents.


METAR-TAF: